createdAt,value
2019-05-12T00:00:11.299Z,68.02
2019-05-12T00:01:11.496Z,68.19
2019-05-12T00:02:11.271Z,68.29
2019-05-12T00:03:11.252Z,68.40
2019-05-12T00:04:11.239Z,68.22
2019-05-12T00:05:11.274Z,68.50
2019-05-12T00:06:11.251Z,68.53
2019-05-12T00:07:11.210Z,68.63
2019-05-12T00:08:11.198Z,68.53
2019-05-12T00:09:11.185Z,68.63
2019-05-12T00:10:11.184Z,68.63
2019-05-12T00:11:11.194Z,68.63
2019-05-12T00:12:11.192Z,68.84
2019-05-12T00:13:11.140Z,68.74
2019-05-12T00:14:11.125Z,69.25
2019-05-12T00:15:11.120Z,69.28
2019-05-12T00:16:11.108Z,69.07
2019-05-12T00:17:11.119Z,68.87
2019-05-12T00:18:11.101Z,69.15
2019-05-12T00:19:11.076Z,69.25
2019-05-12T00:20:11.075Z,69.04
2019-05-12T00:21:11.051Z,68.98
2019-05-12T00:22:11.065Z,69.35
2019-05-12T00:23:23.937Z,69.15
2019-05-12T00:24:12.013Z,69.28
2019-05-12T00:25:11.008Z,68.94
2019-05-12T00:26:10.995Z,69.15
2019-05-12T00:27:11.009Z,69.04
2019-05-12T00:28:10.989Z,68.94
2019-05-12T00:29:10.970Z,68.94
2019-05-12T00:30:10.961Z,69.04
2019-05-12T00:31:10.943Z,69.25
2019-05-12T00:32:10.950Z,68.94
2019-05-12T00:33:10.909Z,69.76
2019-05-12T00:34:10.905Z,69.79
2019-05-12T00:35:10.897Z,69.90
2019-05-12T00:36:10.876Z,70.18
2019-05-12T00:37:10.894Z,69.59
2019-05-12T00:38:10.880Z,69.90
2019-05-12T00:39:10.844Z,69.59
2019-05-12T00:40:10.834Z,69.28
2019-05-12T00:41:10.829Z,68.84
2019-05-12T00:42:10.805Z,69.59
2019-05-12T00:43:10.821Z,68.94
2019-05-12T00:44:10.794Z,69.25
2019-05-12T00:45:10.775Z,68.94
2019-05-12T00:46:10.775Z,68.98
2019-05-12T00:47:10.761Z,69.66
2019-05-12T00:48:10.762Z,69.87
2019-05-12T00:49:10.727Z,69.35
2019-05-12T00:50:10.719Z,69.56
2019-05-12T00:51:10.709Z,69.70
2019-05-12T00:52:10.699Z,69.49
2019-05-12T00:53:10.705Z,70.00
2019-05-12T00:54:10.676Z,69.97
2019-05-12T00:55:10.663Z,69.46
2019-05-12T00:56:10.656Z,70.07
2019-05-12T00:57:10.646Z,69.97
2019-05-12T00:58:10.665Z,69.66
2019-05-12T00:59:10.644Z,70.21
2019-05-12T01:00:10.620Z,69.76
2019-05-12T01:01:10.594Z,70.10
2019-05-12T01:02:10.730Z,70.07
2019-05-12T01:03:10.586Z,70.28
2019-05-12T01:04:10.636Z,70.42
2019-05-12T01:05:10.552Z,70.28
2019-05-12T01:06:10.547Z,69.76
2019-05-12T01:07:10.526Z,69.87
2019-05-12T01:08:10.582Z,70.00
2019-05-12T01:09:10.531Z,69.35
2019-05-12T01:10:10.562Z,69.70
2019-05-12T01:11:10.487Z,70.21
2019-05-12T01:12:10.510Z,69.66
2019-05-12T01:13:10.456Z,70.31
2019-05-12T01:14:10.611Z,69.79
2019-05-12T01:15:10.439Z,69.59
2019-05-12T01:16:10.433Z,70.00
2019-05-12T01:17:10.415Z,70.65
2019-05-12T01:18:10.400Z,70.24
2019-05-12T01:19:10.420Z,69.79
2019-05-12T01:20:10.385Z,70.24
2019-05-12T01:21:10.371Z,70.31
2019-05-12T01:22:10.364Z,70.34
2019-05-12T01:23:10.351Z,69.59
2019-05-12T01:24:10.381Z,70.10
2019-05-12T01:25:10.325Z,70.24
2019-05-12T01:26:10.312Z,70.24
2019-05-12T01:27:10.306Z,70.10
2019-05-12T01:28:10.292Z,70.42
2019-05-12T01:29:10.303Z,70.28
2019-05-12T01:30:10.292Z,69.70
2019-05-12T01:31:10.260Z,70.31
2019-05-12T01:32:10.243Z,70.34
2019-05-12T01:33:10.240Z,69.79
2019-05-12T01:34:10.223Z,69.70
2019-05-12T01:35:10.238Z,70.31
2019-05-12T01:36:10.209Z,70.10
2019-05-12T01:37:10.187Z,71.27
2019-05-12T01:38:10.186Z,71.34
2019-05-12T01:39:10.170Z,70.62
2019-05-12T01:40:10.184Z,71.37
2019-05-12T01:41:10.142Z,70.83
2019-05-12T01:42:10.138Z,71.06
2019-05-12T01:43:10.116Z,71.14
2019-05-12T01:44:10.117Z,71.55
2019-05-12T01:45:10.128Z,71.06
2019-05-12T01:46:10.081Z,71.24
2019-05-12T01:47:10.074Z,71.27
2019-05-12T01:48:10.067Z,71.89
2019-05-12T01:49:10.051Z,71.78
2019-05-12T01:50:10.066Z,71.69
2019-05-12T01:51:10.055Z,71.78
2019-05-12T01:52:10.016Z,71.69
2019-05-12T01:53:10.012Z,71.78
2019-05-12T01:54:14.570Z,71.69
2019-05-12T01:55:10.978Z,71.99
2019-05-12T01:56:09.991Z,72.03
2019-05-12T01:57:09.958Z,71.89
2019-05-12T01:58:09.952Z,72.03
2019-05-12T01:59:09.931Z,71.48
2019-05-12T02:00:09.943Z,72.09
2019-05-12T02:01:09.935Z,72.03
2019-05-12T02:02:09.908Z,72.54
2019-05-12T02:03:09.896Z,72.23
2019-05-12T02:04:09.873Z,72.33
2019-05-12T02:05:09.871Z,72.54
2019-05-12T02:06:09.895Z,72.23
2019-05-12T02:07:09.845Z,72.75
2019-05-12T02:08:09.935Z,72.64
2019-05-12T02:09:09.839Z,72.88
2019-05-12T02:10:09.811Z,72.37
2019-05-12T02:11:09.898Z,72.88
2019-05-12T02:12:09.798Z,73.50
2019-05-12T02:13:09.779Z,73.81
2019-05-12T02:14:09.765Z,72.99
2019-05-12T02:15:09.852Z,73.60
2019-05-12T02:16:09.754Z,73.74
2019-05-12T02:17:09.916Z,73.71
2019-05-12T02:18:09.723Z,73.60
2019-05-12T02:19:09.723Z,72.88
2019-05-12T02:20:09.713Z,72.58
2019-05-12T02:21:09.693Z,72.47
2019-05-12T02:22:09.699Z,72.58
2019-05-12T02:23:09.666Z,72.27
2019-05-12T02:24:23.493Z,72.27
2019-05-12T02:25:10.638Z,72.78
2019-05-12T02:26:09.631Z,72.40
2019-05-12T02:27:09.743Z,73.40
2019-05-12T02:28:09.709Z,73.71
2019-05-12T02:29:09.602Z,73.54
2019-05-12T02:30:10.326Z,73.43
2019-05-12T02:31:09.841Z,73.30
2019-05-12T02:32:09.595Z,73.40
2019-05-12T02:33:09.575Z,73.64
2019-05-12T02:34:09.543Z,73.74
2019-05-12T02:35:09.529Z,73.64
2019-05-12T02:36:09.523Z,73.64
2019-05-12T02:37:09.542Z,73.98
2019-05-12T02:38:09.503Z,74.05
2019-05-12T02:39:09.488Z,73.54
2019-05-12T02:40:09.482Z,73.81
2019-05-12T02:41:09.469Z,73.95
2019-05-12T02:42:09.479Z,73.43
2019-05-12T02:43:09.453Z,73.50
2019-05-12T02:44:09.432Z,73.43
2019-05-12T02:45:09.418Z,73.54
2019-05-12T02:46:09.405Z,73.40
2019-05-12T02:47:09.427Z,73.54
2019-05-12T02:48:09.394Z,73.85
2019-05-12T02:49:09.381Z,73.95
2019-05-12T02:50:09.363Z,73.74
2019-05-12T02:51:09.351Z,74.19
2019-05-12T02:52:09.382Z,73.95
2019-05-12T02:53:09.341Z,73.74
2019-05-12T02:54:09.324Z,74.05
2019-05-12T02:55:09.317Z,74.12
2019-05-12T02:56:09.298Z,74.26
2019-05-12T02:57:09.286Z,74.26
2019-05-12T02:58:09.297Z,74.15
2019-05-12T02:59:09.276Z,73.85
2019-05-12T03:00:09.257Z,73.64
2019-05-12T03:01:09.241Z,73.85
2019-05-12T03:02:09.228Z,73.85
2019-05-12T03:03:09.416Z,73.64
2019-05-12T03:04:09.212Z,73.85
2019-05-12T03:05:09.204Z,73.74
2019-05-12T03:06:09.189Z,73.91
2019-05-12T03:07:09.174Z,73.64
2019-05-12T03:08:09.195Z,73.64
2019-05-12T03:09:09.155Z,73.74
2019-05-12T03:10:09.140Z,73.81
2019-05-12T03:11:09.128Z,73.43
2019-05-12T03:12:09.117Z,73.40
2019-05-12T03:13:09.131Z,73.64
2019-05-12T03:14:09.094Z,73.71
2019-05-12T03:15:09.092Z,73.50
2019-05-12T03:16:09.070Z,73.64
2019-05-12T03:17:09.058Z,73.33
2019-05-12T03:18:09.101Z,73.43
2019-05-12T03:19:09.042Z,73.43
2019-05-12T03:20:09.032Z,73.54
2019-05-12T03:21:09.017Z,73.85
2019-05-12T03:22:09.015Z,73.64
2019-05-12T03:23:09.023Z,73.43
2019-05-12T03:24:08.979Z,73.64
2019-05-12T03:25:20.042Z,73.95
2019-05-12T03:26:10.042Z,73.54
2019-05-12T03:27:08.953Z,73.95
2019-05-12T03:28:09.601Z,73.54
2019-05-12T03:29:08.948Z,73.40
2019-05-12T03:30:11.602Z,73.64
2019-05-12T03:31:09.012Z,73.85
2019-05-12T03:32:09.173Z,73.95
2019-05-12T03:33:11.358Z,73.95
2019-05-12T03:34:11.174Z,73.54
2019-05-12T03:35:09.575Z,73.91
2019-05-12T03:36:10.291Z,73.85
2019-05-12T03:37:09.033Z,74.05
2019-05-12T03:38:08.834Z,73.95
2019-05-12T03:39:08.856Z,73.54
2019-05-12T03:40:08.808Z,73.30
2019-05-12T03:41:08.789Z,73.50
2019-05-12T03:42:08.784Z,73.85
2019-05-12T03:43:08.770Z,73.81
2019-05-12T03:44:08.788Z,74.02
2019-05-12T03:45:08.743Z,73.95
2019-05-12T03:46:08.732Z,73.81
2019-05-12T03:47:08.728Z,73.85
2019-05-12T03:48:08.723Z,73.74
2019-05-12T03:49:08.729Z,73.74
2019-05-12T03:50:08.689Z,73.71
2019-05-12T03:51:08.675Z,73.81
2019-05-12T03:52:08.664Z,73.81
2019-05-12T03:53:10.774Z,73.60
2019-05-12T03:54:08.686Z,73.91
2019-05-12T03:55:29.732Z,73.81
2019-05-12T03:56:09.619Z,73.91
2019-05-12T03:57:08.614Z,73.81
2019-05-12T03:58:08.602Z,73.91
2019-05-12T03:59:08.610Z,73.71
2019-05-12T04:00:08.606Z,73.81
2019-05-12T04:01:08.566Z,73.40
2019-05-12T04:02:08.573Z,73.60
2019-05-12T04:03:08.544Z,73.81
2019-05-12T04:04:08.568Z,73.71
2019-05-12T04:05:08.533Z,73.60
2019-05-12T04:06:08.513Z,73.50
2019-05-12T04:07:08.519Z,73.50
2019-05-12T04:08:08.497Z,73.57
2019-05-12T04:09:08.504Z,73.47
2019-05-12T04:10:08.499Z,73.60
2019-05-12T04:11:08.454Z,73.91
2019-05-12T04:12:08.440Z,73.68
2019-05-12T04:13:08.469Z,73.88
2019-05-12T04:14:08.416Z,73.91
2019-05-12T04:15:08.552Z,73.47
2019-05-12T04:16:08.398Z,73.26
2019-05-12T04:17:08.402Z,73.36
2019-05-12T04:18:08.379Z,73.60
2019-05-12T04:19:08.362Z,73.47
2019-05-12T04:20:08.408Z,73.36
2019-05-12T04:21:08.350Z,73.68
2019-05-12T04:22:08.326Z,73.47
2019-05-12T04:23:08.318Z,73.47
2019-05-12T04:24:08.314Z,72.85
2019-05-12T04:25:08.323Z,72.64
2019-05-12T04:26:12.292Z,72.64
2019-05-12T04:27:09.273Z,72.96
2019-05-12T04:28:08.263Z,73.05
2019-05-12T04:29:08.252Z,72.85
2019-05-12T04:30:08.272Z,73.57
2019-05-12T04:31:08.256Z,73.78
2019-05-12T04:32:08.219Z,73.47
2019-05-12T04:33:08.202Z,73.57
2019-05-12T04:34:08.201Z,73.57
2019-05-12T04:35:08.205Z,72.75
2019-05-12T04:36:08.194Z,72.85
2019-05-12T04:37:08.154Z,72.41
2019-05-12T04:38:08.147Z,72.30
2019-05-12T04:39:08.137Z,72.41
2019-05-12T04:40:08.120Z,73.02
2019-05-12T04:41:08.138Z,73.47
2019-05-12T04:42:08.100Z,73.47
2019-05-12T04:43:08.093Z,73.57
2019-05-12T04:44:08.079Z,73.43
2019-05-12T04:45:08.069Z,73.60
2019-05-12T04:46:08.076Z,73.57
2019-05-12T04:47:08.075Z,73.57
2019-05-12T04:48:08.030Z,73.47
2019-05-12T04:49:08.020Z,73.68
2019-05-12T04:50:08.013Z,73.57
2019-05-12T04:51:08.025Z,73.36
2019-05-12T04:52:07.989Z,73.16
2019-05-12T04:53:07.973Z,73.57
2019-05-12T04:54:07.980Z,73.50
2019-05-12T04:55:07.949Z,73.40
2019-05-12T04:56:18.983Z,73.57
2019-05-12T04:57:08.925Z,73.57
2019-05-12T04:58:07.919Z,73.40
2019-05-12T04:59:07.908Z,73.47
2019-05-12T05:00:07.897Z,73.30
2019-05-12T05:01:07.884Z,73.36
2019-05-12T05:02:07.893Z,73.78
2019-05-12T05:03:07.866Z,73.47
2019-05-12T05:04:07.854Z,73.57
2019-05-12T05:05:07.835Z,73.47
2019-05-12T05:06:07.859Z,72.51
2019-05-12T05:07:07.849Z,72.44
2019-05-12T05:08:07.802Z,72.92
2019-05-12T05:09:07.833Z,72.64
2019-05-12T05:10:07.777Z,72.20
2019-05-12T05:11:07.773Z,72.09
2019-05-12T05:12:07.794Z,71.99
2019-05-12T05:13:07.747Z,72.44
2019-05-12T05:14:07.733Z,72.41
2019-05-12T05:15:07.729Z,72.13
2019-05-12T05:16:07.711Z,72.30
2019-05-12T05:17:07.742Z,71.99
2019-05-12T05:18:07.706Z,72.33
2019-05-12T05:19:07.699Z,72.51
2019-05-12T05:20:07.666Z,72.51
2019-05-12T05:21:07.652Z,72.51
2019-05-12T05:22:07.682Z,72.51
2019-05-12T05:23:07.628Z,72.47
2019-05-12T05:24:07.627Z,72.37
2019-05-12T05:25:07.606Z,71.96
2019-05-12T05:26:21.146Z,71.96
2019-05-12T05:27:08.619Z,71.96
2019-05-12T05:28:07.701Z,72.16
2019-05-12T05:29:07.566Z,71.96
2019-05-12T05:30:07.631Z,71.55
2019-05-12T05:31:07.566Z,71.65
2019-05-12T05:32:07.673Z,71.14
2019-05-12T05:33:07.539Z,71.65
2019-05-12T05:34:07.502Z,71.20
2019-05-12T05:35:07.877Z,71.20
2019-05-12T05:36:08.983Z,71.34
2019-05-12T05:37:08.500Z,71.34
2019-05-12T05:38:10.765Z,71.10
2019-05-12T05:39:08.449Z,71.20
2019-05-12T05:40:07.436Z,71.31
2019-05-12T05:41:10.413Z,71.00
2019-05-12T05:42:07.417Z,71.20
2019-05-12T05:43:18.227Z,71.20
2019-05-12T05:44:08.403Z,71.20
2019-05-12T05:45:10.508Z,71.10
2019-05-12T05:46:08.406Z,71.20
2019-05-12T05:47:07.383Z,71.31
2019-05-12T05:48:10.044Z,71.03
2019-05-12T05:49:07.340Z,70.72
2019-05-12T05:50:07.332Z,71.00
2019-05-12T05:51:09.034Z,70.90
2019-05-12T05:52:07.308Z,70.79
2019-05-12T05:53:09.182Z,71.20
2019-05-12T05:54:08.310Z,71.20
2019-05-12T05:55:14.597Z,71.51
2019-05-12T05:56:08.255Z,71.00
2019-05-12T05:57:07.252Z,70.79
2019-05-12T05:58:10.341Z,71.20
2019-05-12T05:59:07.232Z,70.28
2019-05-12T06:00:16.286Z,70.45
2019-05-12T06:01:08.426Z,69.84
2019-05-12T06:02:07.190Z,69.90
2019-05-12T06:03:15.013Z,69.73
2019-05-12T06:04:08.773Z,70.42
2019-05-12T06:05:07.158Z,70.11
2019-05-12T06:06:12.234Z,69.49
2019-05-12T06:07:08.131Z,69.18
2019-05-12T06:08:09.665Z,68.64
2019-05-12T06:09:08.148Z,68.57
2019-05-12T06:10:07.105Z,68.33
2019-05-12T06:11:08.644Z,68.16
2019-05-12T06:12:09.663Z,68.57
2019-05-12T06:13:07.093Z,68.37
2019-05-12T06:14:11.274Z,68.33
2019-05-12T06:15:08.907Z,68.33
2019-05-12T06:16:11.644Z,68.43
2019-05-12T06:17:08.024Z,68.02
2019-05-12T06:18:07.057Z,67.82
2019-05-12T06:19:06.999Z,68.33
2019-05-12T06:20:07.002Z,68.02
2019-05-12T06:21:06.986Z,67.92
2019-05-12T06:22:09.090Z,68.13
2019-05-12T06:23:08.126Z,68.13
2019-05-12T06:24:08.772Z,67.89
2019-05-12T06:25:07.934Z,67.27
2019-05-12T06:26:06.964Z,67.68
2019-05-12T06:27:15.134Z,68.19
2019-05-12T06:28:08.907Z,68.19
2019-05-12T06:29:11.421Z,67.96
2019-05-12T06:30:07.883Z,67.96
2019-05-12T06:31:06.877Z,68.16
2019-05-12T06:32:10.710Z,68.06
2019-05-12T06:33:06.923Z,68.48
2019-05-12T06:34:15.493Z,68.37
2019-05-12T06:35:07.823Z,68.44
2019-05-12T06:36:07.573Z,68.16
2019-05-12T06:37:11.902Z,68.03
2019-05-12T06:38:07.788Z,68.24
2019-05-12T06:39:10.422Z,68.44
2019-05-12T06:40:07.766Z,67.52
2019-05-12T06:41:06.761Z,67.62
2019-05-12T06:42:12.742Z,67.21
2019-05-12T06:43:07.736Z,67.35
2019-05-12T06:44:08.823Z,67.72
2019-05-12T06:45:07.743Z,67.93
2019-05-12T06:46:06.703Z,68.00
2019-05-12T06:47:08.359Z,67.62
2019-05-12T06:48:06.682Z,67.18
2019-05-12T06:49:12.616Z,67.18
2019-05-12T06:50:07.700Z,66.94
2019-05-12T06:51:09.134Z,66.43
2019-05-12T06:52:07.640Z,65.81
2019-05-12T06:53:06.624Z,65.41
2019-05-12T06:54:11.886Z,65.78
2019-05-12T06:55:07.632Z,64.86
2019-05-12T06:56:09.334Z,65.07
2019-05-12T06:57:21.007Z,64.56
2019-05-12T06:58:07.567Z,64.86
2019-05-12T06:59:10.272Z,65.07
2019-05-12T07:00:07.566Z,64.86
2019-05-12T07:01:10.860Z,65.07
2019-05-12T07:02:07.520Z,65.27
2019-05-12T07:03:06.517Z,65.17
2019-05-12T07:04:10.058Z,64.56
2019-05-12T07:05:06.525Z,64.76
2019-05-12T07:06:09.139Z,65.27
2019-05-12T07:07:07.476Z,65.37
2019-05-12T07:08:06.466Z,65.37
2019-05-12T07:09:09.913Z,65.04
2019-05-12T07:10:11.719Z,64.94
2019-05-12T07:11:07.465Z,64.42
2019-05-12T07:12:07.283Z,63.98
2019-05-12T07:13:06.420Z,64.09
2019-05-12T07:14:13.031Z,63.98
2019-05-12T07:15:07.404Z,62.85
2019-05-12T07:16:10.116Z,63.57
2019-05-12T07:17:07.383Z,63.68
2019-05-12T07:18:06.347Z,63.88
2019-05-12T07:19:15.640Z,63.17
2019-05-12T07:20:07.318Z,62.83
2019-05-12T07:21:09.422Z,62.52
2019-05-12T07:22:18.903Z,62.42
2019-05-12T07:23:07.287Z,61.80
2019-05-12T07:24:10.929Z,61.63
2019-05-12T07:25:08.236Z,61.40
2019-05-12T07:26:14.072Z,61.40
2019-05-12T07:27:09.282Z,61.63
2019-05-12T07:28:07.878Z,61.73
2019-05-12T07:29:06.218Z,61.63
2019-05-12T07:30:06.218Z,61.52
2019-05-12T07:31:06.226Z,61.29
2019-05-12T07:32:14.792Z,61.19
2019-05-12T07:33:07.174Z,60.55
2019-05-12T07:34:07.875Z,61.26
2019-05-12T07:35:06.162Z,60.47
2019-05-12T07:36:06.604Z,61.26
2019-05-12T07:37:06.129Z,60.75
2019-05-12T07:38:06.128Z,61.57
2019-05-12T07:39:08.301Z,60.44
2019-05-12T07:40:06.099Z,60.14
2019-05-12T07:41:10.560Z,60.65
2019-05-12T07:42:06.089Z,60.47
2019-05-12T07:43:09.827Z,60.68
2019-05-12T07:44:07.055Z,60.60
2019-05-12T07:45:06.059Z,61.19
2019-05-12T07:46:07.262Z,61.43
2019-05-12T07:47:06.016Z,61.52
2019-05-12T07:48:10.236Z,61.52
2019-05-12T07:49:06.005Z,61.70
2019-05-12T07:50:09.808Z,61.09
2019-05-12T07:51:07.000Z,61.29
2019-05-12T07:52:05.963Z,60.58
2019-05-12T07:53:05.945Z,61.09
2019-05-12T07:54:05.948Z,60.68
2019-05-12T07:55:05.953Z,60.58
2019-05-12T07:56:05.941Z,60.65
2019-05-12T07:57:11.804Z,61.36
2019-05-12T07:58:14.031Z,61.26
2019-05-12T07:59:06.891Z,60.65
2019-05-12T08:00:05.870Z,60.65
2019-05-12T08:01:08.041Z,59.83
2019-05-12T08:02:05.886Z,60.35
2019-05-12T08:03:14.847Z,60.47
2019-05-12T08:04:06.828Z,60.58
2019-05-12T08:05:05.826Z,60.37
2019-05-12T08:06:05.800Z,58.94
2019-05-12T08:07:05.822Z,59.55
2019-05-12T08:08:10.708Z,59.45
2019-05-12T08:09:06.771Z,59.14
2019-05-12T08:10:07.227Z,59.96
2019-05-12T08:11:06.773Z,59.96
2019-05-12T08:12:09.814Z,60.47
2019-05-12T08:13:06.728Z,60.40
2019-05-12T08:14:05.714Z,58.76
2019-05-12T08:15:09.583Z,59.89
2019-05-12T08:16:05.713Z,59.68
2019-05-12T08:17:11.197Z,59.86
2019-05-12T08:18:08.076Z,60.30
2019-05-12T08:19:08.319Z,59.68
2019-05-12T08:20:05.644Z,59.17
2019-05-12T08:21:05.647Z,59.14
2019-05-12T08:22:05.647Z,58.33
2019-05-12T08:23:10.211Z,57.38
2019-05-12T08:24:06.603Z,57.38
2019-05-12T08:25:05.585Z,56.84
2019-05-12T08:26:12.528Z,56.94
2019-05-12T08:27:06.757Z,57.15
2019-05-12T08:28:14.746Z,57.66
2019-05-12T08:29:10.314Z,57.45
2019-05-12T08:30:06.529Z,57.97
2019-05-12T08:31:05.524Z,57.76
2019-05-12T08:32:10.008Z,55.51
2019-05-12T08:33:09.572Z,55.92
2019-05-12T08:34:05.497Z,56.02
2019-05-12T08:35:05.507Z,56.43
2019-05-12T08:36:11.197Z,56.61
2019-05-12T08:37:06.450Z,56.10
2019-05-12T08:38:05.478Z,56.68
2019-05-12T08:39:06.222Z,55.87
2019-05-12T08:40:07.639Z,53.59
2019-05-12T08:41:05.407Z,53.21
2019-05-12T08:42:05.395Z,53.70
2019-05-12T08:43:10.225Z,54.49
2019-05-12T08:44:06.398Z,54.41
2019-05-12T08:45:08.269Z,53.88
2019-05-12T08:46:10.645Z,53.88
2019-05-12T08:47:06.347Z,54.26
2019-05-12T08:48:10.121Z,54.05
2019-05-12T08:49:06.311Z,54.26
2019-05-12T08:50:05.317Z,53.55
2019-05-12T08:51:14.374Z,53.75
2019-05-12T08:52:06.282Z,54.90
2019-05-12T08:53:05.324Z,54.31
2019-05-12T08:54:07.833Z,55.26
2019-05-12T08:55:05.247Z,56.10
2019-05-12T08:56:13.345Z,55.89
2019-05-12T08:57:06.222Z,55.89
2019-05-12T08:58:05.277Z,55.79
2019-05-12T08:59:09.553Z,55.10
2019-05-12T09:00:08.674Z,55.82
2019-05-12T09:01:05.203Z,56.87
2019-05-12T09:02:07.334Z,56.87
2019-05-12T09:03:06.188Z,57.17
2019-05-12T09:04:12.016Z,56.84
2019-05-12T09:05:06.132Z,57.48
2019-05-12T09:06:09.211Z,56.97
2019-05-12T09:07:06.133Z,57.07
2019-05-12T09:08:05.165Z,57.15
2019-05-12T09:09:05.087Z,56.76
2019-05-12T09:10:05.076Z,56.35
2019-05-12T09:11:05.073Z,56.87
2019-05-12T09:12:05.091Z,56.74
2019-05-12T09:13:05.060Z,57.15
2019-05-12T09:14:05.859Z,56.74
2019-05-12T09:15:07.868Z,57.25
2019-05-12T09:16:05.009Z,56.94
2019-05-12T09:17:07.235Z,56.92
2019-05-12T09:18:05.188Z,56.84
2019-05-12T09:19:09.743Z,57.22
2019-05-12T09:20:08.279Z,56.51
2019-05-12T09:21:04.969Z,56.79
2019-05-12T09:22:16.277Z,55.66
2019-05-12T09:23:05.933Z,55.43
2019-05-12T09:24:04.962Z,53.49
2019-05-12T09:25:08.267Z,53.77
2019-05-12T09:26:04.909Z,53.98
2019-05-12T09:27:08.735Z,53.47
2019-05-12T09:28:04.877Z,53.88
2019-05-12T09:29:07.386Z,52.42
2019-05-12T09:30:09.509Z,51.51
2019-05-12T09:31:05.848Z,52.29
2019-05-12T09:32:09.363Z,52.09
2019-05-12T09:33:04.816Z,51.25
2019-05-12T09:34:11.782Z,51.25
2019-05-12T09:35:05.794Z,51.25
2019-05-12T09:36:04.793Z,49.80
2019-05-12T09:37:04.785Z,49.11
2019-05-12T09:38:06.099Z,47.79
2019-05-12T09:39:05.856Z,47.91
2019-05-12T09:40:04.778Z,47.58
2019-05-12T09:41:05.427Z,47.50
2019-05-12T09:42:04.730Z,47.91
2019-05-12T09:43:06.350Z,47.49
2019-05-12T09:44:05.719Z,47.69
2019-05-12T09:45:06.130Z,48.11
2019-05-12T09:46:05.673Z,48.50
2019-05-12T09:47:07.633Z,48.30
2019-05-12T09:48:09.060Z,48.99
2019-05-12T09:49:04.678Z,47.91
2019-05-12T09:50:09.482Z,47.09
2019-05-12T09:51:07.957Z,47.28
2019-05-12T09:52:04.627Z,47.28
2019-05-12T09:53:09.735Z,46.75
2019-05-12T09:54:05.606Z,46.44
2019-05-12T09:55:04.599Z,46.34
2019-05-12T09:56:04.650Z,46.42
2019-05-12T09:57:04.561Z,47.13
2019-05-12T09:58:04.558Z,45.63
2019-05-12T09:59:17.257Z,46.06
2019-05-12T10:00:05.547Z,45.75
2019-05-12T10:01:04.548Z,46.47
2019-05-12T10:02:04.512Z,45.42
2019-05-12T10:03:07.962Z,45.83
2019-05-12T10:04:04.476Z,45.79
2019-05-12T10:05:04.468Z,40.50
2019-05-12T10:06:04.519Z,40.80
2019-05-12T10:07:04.448Z,42.33
2019-05-12T10:08:04.825Z,43.14
2019-05-12T10:09:08.927Z,44.67
2019-05-12T10:10:05.423Z,44.87
2019-05-12T10:11:04.444Z,46.37
2019-05-12T10:12:05.602Z,46.17
2019-05-12T10:13:04.989Z,45.84
2019-05-12T10:14:06.586Z,46.28
2019-05-12T10:15:05.356Z,45.95
2019-05-12T10:16:08.584Z,46.28
2019-05-12T10:17:04.335Z,46.15
2019-05-12T10:18:09.473Z,44.42
2019-05-12T10:19:05.308Z,44.46
2019-05-12T10:20:04.310Z,45.28
2019-05-12T10:21:04.326Z,45.00
2019-05-12T10:22:04.284Z,46.62
2019-05-12T10:23:04.673Z,46.11
2019-05-12T10:24:05.080Z,46.14
2019-05-12T10:25:04.259Z,47.64
2019-05-12T10:26:09.384Z,46.62
2019-05-12T10:27:05.223Z,46.93
2019-05-12T10:28:11.392Z,46.11
2019-05-12T10:29:16.439Z,46.91
2019-05-12T10:30:12.000Z,46.91
2019-05-12T10:31:05.219Z,45.91
2019-05-12T10:32:04.194Z,45.89
2019-05-12T10:33:04.183Z,46.09
2019-05-12T10:34:04.165Z,46.40
2019-05-12T10:35:04.143Z,46.09
2019-05-12T10:36:05.291Z,45.59
2019-05-12T10:37:04.247Z,46.15
2019-05-12T10:38:09.082Z,45.75
2019-05-12T10:39:05.090Z,44.30
2019-05-12T10:40:04.073Z,44.40
2019-05-12T10:41:04.408Z,43.16
2019-05-12T10:42:04.068Z,42.13
2019-05-12T10:43:04.795Z,41.31
2019-05-12T10:44:04.153Z,39.28
2019-05-12T10:45:04.353Z,39.69
2019-05-12T10:46:04.314Z,40.12
2019-05-12T10:47:04.532Z,40.30
2019-05-12T10:48:04.008Z,40.91
2019-05-12T10:49:04.039Z,40.91
2019-05-12T10:50:03.961Z,40.89
2019-05-12T10:51:04.002Z,40.38
2019-05-12T10:52:04.072Z,40.61
2019-05-12T10:53:04.720Z,40.01
2019-05-12T10:54:09.983Z,41.03
2019-05-12T10:55:04.897Z,40.95
2019-05-12T10:56:03.947Z,42.17
2019-05-12T10:57:05.062Z,43.47
2019-05-12T10:58:06.955Z,42.86
2019-05-12T10:59:04.358Z,42.55
2019-05-12T11:00:04.269Z,42.05
2019-05-12T11:01:07.392Z,42.25
2019-05-12T11:02:03.849Z,42.66
2019-05-12T11:03:10.336Z,40.09
2019-05-12T11:04:04.803Z,39.69
2019-05-12T11:05:03.814Z,40.20
2019-05-12T11:06:07.536Z,41.03
2019-05-12T11:07:04.687Z,42.14
2019-05-12T11:08:11.046Z,42.47
2019-05-12T11:09:04.753Z,42.37
2019-05-12T11:10:15.443Z,42.08
2019-05-12T11:11:04.722Z,42.90
2019-05-12T11:12:03.729Z,43.29
2019-05-12T11:13:08.467Z,43.06
2019-05-12T11:14:04.682Z,43.16
2019-05-12T11:15:06.872Z,43.35
2019-05-12T11:16:03.936Z,43.24
2019-05-12T11:17:07.885Z,43.44
2019-05-12T11:18:03.645Z,43.55
2019-05-12T11:19:06.493Z,42.92
2019-05-12T11:20:04.639Z,42.51
2019-05-12T11:21:03.770Z,43.10
2019-05-12T11:22:03.829Z,41.88
2019-05-12T11:23:03.844Z,41.46
2019-05-12T11:24:03.901Z,40.95
2019-05-12T11:25:04.280Z,40.73
2019-05-12T11:26:03.994Z,40.43
2019-05-12T11:27:04.077Z,40.43
2019-05-12T11:28:03.936Z,40.11
2019-05-12T11:29:03.834Z,40.41
2019-05-12T11:30:04.310Z,40.71
2019-05-12T11:31:03.492Z,40.41
2019-05-12T11:32:03.488Z,40.29
2019-05-12T11:33:04.391Z,39.78
2019-05-12T11:34:04.807Z,38.97
2019-05-12T11:35:04.141Z,40.09
2019-05-12T11:36:04.381Z,39.97
2019-05-12T11:37:03.555Z,39.95
2019-05-12T11:38:04.415Z,39.46
2019-05-12T11:39:03.698Z,38.93
2019-05-12T11:40:04.316Z,39.24
2019-05-12T11:41:04.223Z,38.33
2019-05-12T11:42:04.251Z,37.81
2019-05-12T11:43:04.123Z,37.72
2019-05-12T11:44:04.007Z,38.35
2019-05-12T11:45:03.341Z,38.75
2019-05-12T11:46:03.333Z,39.07
2019-05-12T11:47:03.803Z,38.77
2019-05-12T11:48:10.219Z,38.97
2019-05-12T11:49:04.491Z,38.37
2019-05-12T11:50:05.254Z,38.35
2019-05-12T11:51:03.943Z,38.04
2019-05-12T11:52:09.214Z,38.16
2019-05-12T11:53:04.480Z,38.37
2019-05-12T11:54:08.556Z,39.29
2019-05-12T11:55:04.226Z,38.59
2019-05-12T11:56:07.829Z,39.11
2019-05-12T11:57:04.205Z,39.01
2019-05-12T11:58:06.720Z,40.02
2019-05-12T11:59:04.221Z,40.51
2019-05-12T12:00:05.426Z,38.48
2019-05-12T12:01:04.777Z,38.89
2019-05-12T12:02:03.159Z,40.95
2019-05-12T12:03:12.368Z,39.84
2019-05-12T12:04:04.165Z,40.16
2019-05-12T12:05:03.108Z,40.45
2019-05-12T12:06:03.096Z,40.33
2019-05-12T12:07:03.092Z,39.82
2019-05-12T12:08:03.988Z,40.04
2019-05-12T12:09:03.926Z,40.65
2019-05-12T12:10:03.722Z,40.14
2019-05-12T12:11:03.937Z,40.06
2019-05-12T12:12:07.212Z,40.85
2019-05-12T12:13:03.788Z,40.85
2019-05-12T12:14:06.381Z,40.85
2019-05-12T12:15:04.683Z,40.75
2019-05-12T12:16:07.096Z,40.14
2019-05-12T12:17:03.972Z,40.97
2019-05-12T12:18:12.432Z,40.87
2019-05-12T12:19:05.760Z,40.95
2019-05-12T12:20:03.771Z,40.87
2019-05-12T12:21:07.440Z,41.78
2019-05-12T12:22:04.378Z,41.30
2019-05-12T12:23:08.819Z,41.72
2019-05-12T12:24:04.036Z,42.63
2019-05-12T12:25:10.429Z,42.25
2019-05-12T12:26:04.083Z,42.94
2019-05-12T12:27:03.890Z,43.06
2019-05-12T12:28:04.348Z,42.96
2019-05-12T12:29:03.303Z,44.08
2019-05-12T12:30:15.692Z,43.57
2019-05-12T12:31:07.527Z,44.48
2019-05-12T12:32:02.805Z,44.60
2019-05-12T12:33:04.020Z,44.79
2019-05-12T12:34:02.815Z,44.51
2019-05-12T12:35:07.419Z,44.20
2019-05-12T12:36:04.175Z,44.71
2019-05-12T12:37:03.305Z,45.52
2019-05-12T12:38:03.571Z,44.71
2019-05-12T12:39:04.197Z,45.72
2019-05-12T12:40:04.306Z,45.20
2019-05-12T12:41:03.910Z,44.71
2019-05-12T12:42:04.429Z,44.93
2019-05-12T12:43:03.824Z,46.15
2019-05-12T12:44:04.586Z,45.83
2019-05-12T12:45:04.216Z,46.64
2019-05-12T12:46:02.667Z,46.15
2019-05-12T12:47:02.658Z,46.13
2019-05-12T12:48:02.623Z,46.15
2019-05-12T12:49:06.458Z,45.80
2019-05-12T12:50:04.019Z,44.97
2019-05-12T12:51:03.950Z,44.97
2019-05-12T12:52:03.310Z,44.97